Time;durP1;ratioP1;P1;durP2;ratioP2;P2;SDS_P1;SDS_P2;PMS_P1;PMS_P2;Temp;Humidity;BMP_temperature;BMP_pressure;BME280_temperature;BME280_humidity;BME280_pressure;Samples;Min_cycle;Max_cycle;Signal;HPM_P1;HPM_P2
2022/07/29 00:01:29;;;;;;;2.73;1.10;;;17.10;99.90;;;;;;5093702;28;20191;-67
2022/07/29 00:03:57;;;;;;;3.40;1.13;;;17.50;99.90;;;;;;5094451;28;20198;-70
2022/07/29 00:06:25;;;;;;;3.07;1.27;;;17.90;99.90;;;;;;5105441;28;20212;-68
2022/07/29 00:08:53;;;;;;;3.90;1.37;;;17.60;99.90;;;;;;5116647;28;20212;-69
2022/07/29 00:11:20;;;;;;;3.53;1.13;;;17.60;99.90;;;;;;5094612;28;20278;-68
2022/07/29 00:13:48;;;;;;;2.83;1.47;;;17.50;99.90;;;;;;5111162;27;20190;-70
2022/07/29 00:16:16;;;;;;;3.60;1.60;;;18.00;99.90;;;;;;5112953;28;20221;-68
2022/07/29 00:18:43;;;;;;;2.60;1.20;;;17.60;99.90;;;;;;5113948;28;20182;-71
2022/07/29 00:21:11;;;;;;;3.77;1.40;;;18.20;99.90;;;;;;5113892;28;20584;-71
2022/07/29 00:23:39;;;;;;;2.37;1.20;;;18.30;99.90;;;;;;5113857;28;20183;-69
2022/07/29 00:26:07;;;;;;;2.37;1.03;;;18.80;99.90;;;;;;5095021;28;20191;-68
2022/07/29 00:28:34;;;;;;;6.27;1.63;;;19.10;99.90;;;;;;5093285;28;20186;-71
2022/07/29 00:31:02;;;;;;;3.17;1.37;;;18.70;99.90;;;;;;5093131;28;20227;-69
2022/07/29 00:33:30;;;;;;;3.20;1.43;;;18.70;99.90;;;;;;5103904;28;20179;-70
2022/07/29 00:35:58;;;;;;;6.27;1.57;;;18.70;99.90;;;;;;5106757;28;20222;-70
2022/07/29 00:38:25;;;;;;;3.63;1.50;;;18.70;99.90;;;;;;5111221;28;20175;-68
2022/07/29 00:40:53;;;;;;;2.90;1.10;;;18.90;99.90;;;;;;5075043;28;20194;-70
2022/07/29 00:43:21;;;;;;;3.43;1.30;;;19.00;99.90;;;;;;5093180;28;20176;-68
2022/07/29 00:45:48;;;;;;;4.90;1.37;;;19.30;99.90;;;;;;5093362;28;20191;-68
2022/07/29 00:48:16;;;;;;;3.73;1.20;;;19.50;99.30;;;;;;5092955;28;20175;-69
2022/07/29 00:50:44;;;;;;;3.93;1.33;;;18.80;96.80;;;;;;5092963;28;20242;-69
2022/07/29 00:53:13;;;;;;;2.67;0.93;;;18.90;99.90;;;;;;5093295;28;20256;-67
2022/07/29 00:55:41;;;;;;;3.50;0.80;;;18.90;96.10;;;;;;5110624;28;20584;-69
2022/07/29 00:58:09;;;;;;;1.43;1.00;;;19.00;98.80;;;;;;5113068;28;20179;-68
2022/07/29 01:00:36;;;;;;;4.77;1.10;;;18.70;95.50;;;;;;5101060;28;20273;-68
2022/07/29 01:03:04;;;;;;;2.93;1.00;;;18.70;98.90;;;;;;5094796;28;20183;-68
2022/07/29 01:05:32;;;;;;;4.40;1.40;;;18.70;96.80;;;;;;5093571;28;20184;-68
2022/07/29 01:08:01;;;;;;;2.23;0.90;;;18.60;98.80;;;;;;5104702;28;20216;-68
2022/07/29 01:10:30;;;;;;;1.70;1.00;;;19.10;96.60;;;;;;5072274;28;20615;-68
2022/07/29 01:13:01;;;;;;;2.00;1.17;;;18.70;94.90;;;;;;5079578;28;20217;-69
2022/07/29 01:15:29;;;;;;;2.37;1.10;;;18.60;96.80;;;;;;5092391;28;20218;-69
2022/07/29 01:18:12;;;;;;;2.10;1.00;;;18.90;99.60;;;;;;5092503;28;20663;-70
2022/07/29 01:21:10;;;;;;;3.50;1.00;;;18.90;94.60;;;;;;5091901;28;20186;-69
2022/07/29 01:23:49;;;;;;;3.30;0.90;;;18.80;94.90;;;;;;5092300;28;20184;-68
2022/07/29 01:26:26;;;;;;;1.23;0.97;;;19.00;94.00;;;;;;5092184;28;20261;-68
2022/07/29 01:29:16;;;;;;;3.17;1.27;;;18.80;95.30;;;;;;5092177;28;20236;-67
2022/07/29 01:32:24;;;;;;;3.20;1.00;;;18.90;96.10;;;;;;5095302;28;20224;-68
2022/07/29 01:35:19;;;;;;;2.53;1.00;;;19.30;94.10;;;;;;5097437;28;20198;-69
2022/07/29 01:37:57;;;;;;;2.50;0.87;;;19.80;94.30;;;;;;5111791;28;20562;-69
2022/07/29 01:40:58;;;;;;;3.63;0.97;;;20.10;91.40;;;;;;5103300;28;20183;-69
2022/07/29 01:43:52;;;;;;;3.10;1.23;;;20.40;89.40;;;;;;5075021;28;20944;-71
2022/07/29 01:46:32;;;;;;;4.20;1.10;;;19.90;91.10;;;;;;5081105;28;20551;-67
2022/07/29 01:49:11;;;;;;;3.03;1.33;;;19.30;92.80;;;;;;5074815;28;20211;-68
2022/07/29 01:52:08;;;;;;;2.10;0.70;;;19.80;92.50;;;;;;5096399;28;20204;-67
2022/07/29 01:54:47;;;;;;;4.53;1.00;;;20.00;91.00;;;;;;5085710;28;20183;-67
2022/07/29 01:57:19;;;;;;;1.97;1.03;;;20.60;80.90;;;;;;5091756;28;20198;-67
2022/07/29 01:59:49;;;;;;;2.00;1.10;;;20.40;76.60;;;;;;5098194;28;20191;-68
2022/07/29 02:02:18;;;;;;;2.07;0.90;;;20.10;75.90;;;;;;5095121;28;20182;-68
2022/07/29 02:04:48;;;;;;;1.10;0.90;;;19.70;75.00;;;;;;5091495;28;20177;-68
2022/07/29 02:07:25;;;;;;;1.80;0.97;;;20.20;77.90;;;;;;5091496;28;20580;-70
2022/07/29 02:09:54;;;;;;;1.53;0.90;;;19.80;74.40;;;;;;5091585;28;20174;-69
2022/07/29 02:12:22;;;;;;;3.73;0.97;;;20.10;81.40;;;;;;5091447;28;20226;-70
2022/07/29 02:14:53;;;;;;;1.70;1.30;;;20.40;76.30;;;;;;5073309;28;20178;-71
2022/07/29 02:17:35;;;;;;;3.07;0.77;;;20.70;74.60;;;;;;5091447;28;20583;-69
2022/07/29 02:20:05;;;;;;;1.67;0.80;;;21.30;75.50;;;;;;5089371;28;20183;-70
2022/07/29 02:22:37;;;;;;;3.67;0.90;;;21.60;69.40;;;;;;5071261;28;20205;-68
2022/07/29 02:25:08;;;;;;;2.33;1.10;;;21.00;70.00;;;;;;5053185;28;20186;-69
2022/07/29 02:27:37;;;;;;;4.73;1.10;;;20.60;75.00;;;;;;5071194;28;20176;-69
2022/07/29 02:30:07;;;;;;;1.93;0.80;;;20.80;72.20;;;;;;5071261;28;20713;-69
2022/07/29 02:32:40;;;;;;;2.23;1.20;;;20.80;73.50;;;;;;5071393;28;20254;-69
2022/07/29 02:35:09;;;;;;;1.40;0.80;;;20.30;64.30;;;;;;5088705;28;20189;-67
2022/07/29 02:37:38;;;;;;;2.73;0.90;;;19.00;60.50;;;;;;5095368;28;20586;-67
2022/07/29 02:40:11;;;;;;;3.37;0.83;;;18.80;65.90;;;;;;5078207;28;20628;-67
2022/07/29 02:42:44;;;;;;;3.50;1.00;;;19.30;61.20;;;;;;5095280;28;20238;-68
2022/07/29 02:45:12;;;;;;;1.47;0.93;;;19.90;62.20;;;;;;5096562;28;20179;-67
2022/07/29 02:47:49;;;;;;;1.93;0.87;;;20.30;57.70;;;;;;5095290;28;20181;-68
2022/07/29 02:50:35;;;;;;;2.80;1.07;;;20.50;59.90;;;;;;5095270;28;20189;-68
2022/07/29 02:53:23;;;;;;;2.90;0.80;;;20.40;56.00;;;;;;5106299;28;20180;-69
2022/07/29 02:55:58;;;;;;;3.23;0.70;;;20.10;51.60;;;;;;5102061;28;20218;-68
2022/07/29 02:58:42;;;;;;;2.23;1.00;;;19.50;51.40;;;;;;5089696;28;20546;-69
2022/07/29 03:01:22;;;;;;;2.27;1.00;;;19.70;55.40;;;;;;5094962;28;20244;-68
2022/07/29 03:03:54;;;;;;;1.87;0.90;;;19.60;55.00;;;;;;5097347;28;20214;-69
2022/07/29 03:06:27;;;;;;;1.60;0.80;;;20.30;52.10;;;;;;5096691;28;20550;-69
2022/07/29 03:08:56;;;;;;;2.33;0.77;;;20.20;47.20;;;;;;5113268;28;20653;-68
2022/07/29 03:11:25;;;;;;;2.70;1.00;;;20.40;48.70;;;;;;5097247;28;20224;-69
2022/07/29 03:13:54;;;;;;;1.80;0.70;;;20.80;48.60;;;;;;5094609;28;20163;-69
2022/07/29 03:16:23;;;;;;;1.03;0.80;;;20.70;45.40;;;;;;5094715;28;20211;-69
2022/07/29 03:18:52;;;;;;;3.00;0.90;;;20.50;44.50;;;;;;5076528;28;20243;-69
2022/07/29 03:21:19;;;;;;;1.87;0.87;;;20.80;45.40;;;;;;5094764;28;20248;-69
2022/07/29 03:23:47;;;;;;;0.83;0.60;;;20.90;41.80;;;;;;5094420;28;20629;-69
2022/07/29 03:26:15;;;;;;;1.27;0.70;;;20.50;40.60;;;;;;5094693;28;20263;-68
2022/07/29 03:28:42;;;;;;;1.37;0.80;;;20.60;38.50;;;;;;5094425;28;20468;-68
2022/07/29 03:31:10;;;;;;;0.97;0.67;;;19.90;35.00;;;;;;5094263;28;20321;-69
2022/07/29 03:33:38;;;;;;;1.80;0.90;;;20.20;40.30;;;;;;5094555;28;20652;-69
2022/07/29 03:36:06;;;;;;;2.97;0.80;;;20.50;38.80;;;;;;5094313;28;20272;-70
2022/07/29 03:38:36;;;;;;;1.97;0.97;;;20.10;34.30;;;;;;5094332;28;20650;-68
2022/07/29 03:41:09;;;;;;;1.80;0.67;;;20.20;33.70;;;;;;5094350;28;20223;-69
2022/07/29 03:43:38;;;;;;;1.63;0.77;;;20.70;36.50;;;;;;5095902;28;20171;-67
2022/07/29 03:46:10;;;;;;;0.90;0.70;;;20.70;37.10;;;;;;5112513;28;20185;-68
2022/07/29 03:48:43;;;;;;;1.67;0.80;;;20.60;35.30;;;;;;5114230;28;20544;-68
2022/07/29 03:51:10;;;;;;;3.13;0.60;;;21.10;35.80;;;;;;5114134;28;20182;-68
2022/07/29 03:53:39;;;;;;;2.60;0.80;;;21.30;33.70;;;;;;5101330;28;20666;-69
2022/07/29 03:56:09;;;;;;;2.00;0.80;;;21.00;34.70;;;;;;5113649;28;20292;-68
2022/07/29 03:58:38;;;;;;;1.73;0.60;;;20.80;35.20;;;;;;5114104;28;20182;-68
2022/07/29 04:01:05;;;;;;;1.00;0.67;;;20.80;34.80;;;;;;5107334;28;20190;-67
2022/07/29 04:03:34;;;;;;;2.27;0.90;;;21.10;34.70;;;;;;5094820;28;20542;-68
2022/07/29 04:06:07;;;;;;;3.40;1.00;;;20.40;30.80;;;;;;5094549;28;20281;-68
2022/07/29 04:08:36;;;;;;;0.90;0.80;;;19.90;33.00;;;;;;5069420;28;20190;-69
2022/07/29 04:11:04;;;;;;;1.83;1.30;;;19.80;32.90;;;;;;5097220;28;20196;-69
2022/07/29 04:13:33;;;;;;;1.57;1.23;;;20.20;33.80;;;;;;5107186;28;20177;-69
2022/07/29 04:16:01;;;;;;;1.47;1.13;;;20.40;33.00;;;;;;5104855;28;20277;-69
2022/07/29 04:18:28;;;;;;;2.67;1.10;;;20.70;33.00;;;;;;5095332;28;20171;-69
2022/07/29 04:20:58;;;;;;;1.93;0.90;;;20.60;29.60;;;;;;5102715;28;20175;-69
2022/07/29 04:23:27;;;;;;;3.23;0.90;;;20.80;31.60;;;;;;5100733;28;20717;-70
2022/07/29 04:25:55;;;;;;;3.30;0.93;;;21.00;31.30;;;;;;5113518;28;20219;-70
2022/07/29 04:28:23;;;;;;;3.03;0.90;;;20.70;30.50;;;;;;5113635;28;20546;-70
2022/07/29 04:30:50;;;;;;;3.87;0.93;;;20.80;30.90;;;;;;5084010;28;20313;-69
2022/07/29 04:33:18;;;;;;;0.67;0.60;;;20.20;27.60;;;;;;5113668;28;20188;-69
2022/07/29 04:35:46;;;;;;;4.37;0.77;;;19.80;27.80;;;;;;5113373;28;20216;-70
2022/07/29 04:38:13;;;;;;;1.90;1.03;;;19.80;29.70;;;;;;5113424;28;20185;-69
2022/07/29 04:40:41;;;;;;;1.80;0.80;;;19.30;31.40;;;;;;5097139;28;20283;-69
2022/07/29 04:43:09;;;;;;;0.97;0.57;;;19.50;33.60;;;;;;5111047;28;20189;-69
2022/07/29 04:45:36;;;;;;;3.30;0.97;;;19.80;32.70;;;;;;5113556;28;20174;-69
2022/07/29 04:48:04;;;;;;;2.93;0.90;;;20.10;33.80;;;;;;5109133;28;20171;-70
2022/07/29 04:50:32;;;;;;;2.20;0.80;;;20.30;39.70;;;;;;5092936;28;20185;-68
2022/07/29 04:53:00;;;;;;;6.20;1.03;;;20.00;43.80;;;;;;5092944;28;20724;-69
2022/07/29 04:55:28;;;;;;;3.17;0.80;;;19.90;44.90;;;;;;5092845;28;20211;-70
2022/07/29 04:57:55;;;;;;;2.17;0.90;;;20.10;47.60;;;;;;5094267;28;20180;-70
2022/07/29 05:00:23;;;;;;;2.90;0.97;;;20.20;50.20;;;;;;5113209;28;20200;-71
2022/07/29 05:02:51;;;;;;;3.10;1.17;;;20.20;45.50;;;;;;5111076;28;20209;-70
2022/07/29 05:05:19;;;;;;;4.80;0.90;;;20.20;45.20;;;;;;5112931;28;20171;-70
2022/07/29 05:07:46;;;;;;;3.13;1.13;;;20.00;47.00;;;;;;5112149;28;20585;-68
2022/07/29 05:10:14;;;;;;;2.43;1.10;;;19.80;47.80;;;;;;5072360;28;20522;-68
2022/07/29 05:12:42;;;;;;;2.10;0.73;;;19.60;48.30;;;;;;5087860;28;20190;-68
2022/07/29 05:15:10;;;;;;;1.80;0.90;;;19.40;49.80;;;;;;5087955;28;20276;-67
2022/07/29 05:17:37;;;;;;;3.10;1.73;;;19.40;49.20;;;;;;5100161;28;20191;-70
2022/07/29 05:20:07;;;;;;;2.43;0.90;;;19.50;49.40;;;;;;5112502;28;20197;-68
2022/07/29 05:22:34;;;;;;;3.70;0.90;;;19.10;49.10;;;;;;5095215;28;20180;-69
2022/07/29 05:25:02;;;;;;;4.43;1.20;;;18.90;50.40;;;;;;5092152;28;20172;-69
2022/07/29 05:27:30;;;;;;;2.87;1.00;;;18.60;50.30;;;;;;5092506;28;20254;-68
2022/07/29 05:29:58;;;;;;;3.40;0.93;;;18.70;53.60;;;;;;5107786;28;20556;-69
2022/07/29 05:32:25;;;;;;;3.53;1.30;;;18.60;55.00;;;;;;5093228;28;20587;-68
2022/07/29 05:34:53;;;;;;;2.17;1.00;;;18.40;55.70;;;;;;5097592;28;20187;-68
2022/07/29 05:37:21;;;;;;;3.80;1.70;;;18.00;57.10;;;;;;5091787;28;20721;-69
2022/07/29 05:39:49;;;;;;;3.13;1.00;;;17.80;56.70;;;;;;5092132;28;20236;-68
2022/07/29 05:42:16;;;;;;;5.00;1.40;;;17.50;60.10;;;;;;5092895;28;20171;-68
2022/07/29 05:44:44;;;;;;;4.87;0.93;;;17.10;63.80;;;;;;5103500;28;20175;-68
2022/07/29 05:47:12;;;;;;;1.73;1.10;;;16.80;67.30;;;;;;5106255;28;20190;-69
2022/07/29 05:49:39;;;;;;;1.63;0.90;;;16.60;70.80;;;;;;5111113;28;20624;-69
2022/07/29 05:52:08;;;;;;;2.87;1.03;;;16.40;75.20;;;;;;5111998;28;20170;-69
2022/07/29 05:54:36;;;;;;;3.50;1.10;;;16.20;82.20;;;;;;5104985;28;20285;-67
2022/07/29 05:57:05;;;;;;;3.13;1.00;;;16.00;79.30;;;;;;5097945;28;20212;-68
2022/07/29 05:59:36;;;;;;;1.90;1.10;;;15.90;81.90;;;;;;5092242;28;20190;-68
2022/07/29 06:02:04;;;;;;;1.53;0.90;;;15.80;84.20;;;;;;5106995;28;20228;-68
2022/07/29 06:04:33;;;;;;;4.67;1.23;;;15.80;89.00;;;;;;5091719;28;20171;-68
2022/07/29 06:07:01;;;;;;;3.27;1.07;;;15.70;91.50;;;;;;5102737;28;20186;-68
2022/07/29 06:09:29;;;;;;;1.57;1.00;;;15.70;92.50;;;;;;5091405;28;20382;-68
2022/07/29 06:11:58;;;;;;;3.40;1.10;;;15.60;93.90;;;;;;5095957;28;20192;-70
2022/07/29 06:14:26;;;;;;;3.77;1.10;;;15.50;94.00;;;;;;5053266;28;20678;-69
2022/07/29 06:16:54;;;;;;;2.87;1.10;;;15.30;97.30;;;;;;5071269;28;20254;-69
2022/07/29 06:19:22;;;;;;;1.43;1.00;;;15.30;98.80;;;;;;5074871;28;20190;-70
2022/07/29 06:21:49;;;;;;;1.63;0.90;;;15.20;99.90;;;;;;5098624;28;20688;-68
2022/07/29 06:24:17;;;;;;;2.50;0.90;;;15.10;99.90;;;;;;5111770;28;20188;-67
2022/07/29 06:26:45;;;;;;;3.93;1.10;;;15.00;99.90;;;;;;5111862;28;20185;-68
2022/07/29 06:29:13;;;;;;;1.70;1.00;;;14.90;99.90;;;;;;5097321;28;20191;-68
2022/07/29 06:31:41;;;;;;;7.57;1.30;;;14.80;99.90;;;;;;5096683;28;20222;-67
2022/07/29 06:34:08;;;;;;;2.20;1.10;;;14.70;99.90;;;;;;5111551;28;20274;-67
2022/07/29 06:36:39;;;;;;;1.20;0.97;;;14.70;99.90;;;;;;5111626;28;20213;-68
2022/07/29 06:39:09;;;;;;;3.43;1.13;;;14.50;99.90;;;;;;5111408;28;20189;-67
2022/07/29 06:41:37;;;;;;;4.97;2.37;;;14.50;99.90;;;;;;5106268;28;20182;-69
2022/07/29 06:44:05;;;;;;;2.90;1.47;;;14.50;99.90;;;;;;5091012;28;20254;-68
2022/07/29 06:46:32;;;;;;;5.20;1.07;;;14.50;99.90;;;;;;5070946;28;20179;-68
2022/07/29 06:49:02;;;;;;;1.57;1.00;;;14.40;99.90;;;;;;5104887;28;20185;-69
2022/07/29 06:51:29;;;;;;;4.97;1.10;;;14.20;99.90;;;;;;5111654;28;20235;-68
2022/07/29 06:53:58;;;;;;;2.77;1.10;;;14.20;99.90;;;;;;5111506;28;20177;-70
2022/07/29 06:56:26;;;;;;;3.37;1.27;;;14.10;99.90;;;;;;5073415;28;20691;-68
2022/07/29 06:58:54;;;;;;;1.93;1.00;;;14.00;99.90;;;;;;5073011;28;20182;-67
2022/07/29 07:01:22;;;;;;;2.93;1.50;;;13.90;99.90;;;;;;5094893;28;20209;-67
2022/07/29 07:03:49;;;;;;;2.80;1.33;;;13.90;99.90;;;;;;5094120;28;20178;-68
2022/07/29 07:06:17;;;;;;;6.70;1.20;;;13.80;99.90;;;;;;5099603;28;20189;-69
2022/07/29 07:08:45;;;;;;;4.33;1.30;;;13.70;99.90;;;;;;5110979;28;20177;-69
2022/07/29 07:11:13;;;;;;;3.97;1.40;;;13.60;99.90;;;;;;5111466;28;20249;-68
2022/07/29 07:13:40;;;;;;;3.07;1.40;;;13.50;99.90;;;;;;5109027;28;20181;-68
2022/07/29 07:16:08;;;;;;;3.53;1.20;;;13.40;99.90;;;;;;5090846;28;20608;-69
2022/07/29 07:18:36;;;;;;;6.90;1.10;;;13.40;99.90;;;;;;5091242;28;20174;-71
2022/07/29 07:21:04;;;;;;;8.73;2.33;;;13.20;99.90;;;;;;5094810;28;20177;-68
2022/07/29 07:23:32;;;;;;;8.00;3.30;;;13.20;99.90;;;;;;5098947;28;20622;-68
2022/07/29 07:26:00;;;;;;;9.30;2.63;;;13.10;99.90;;;;;;5114982;28;20172;-67
2022/07/29 07:28:28;;;;;;;4.27;2.83;;;13.10;99.90;;;;;;5114909;28;20260;-69
2022/07/29 07:30:55;;;;;;;6.07;2.37;;;13.00;99.90;;;;;;5114535;28;20312;-68
2022/07/29 07:33:24;;;;;;;4.63;1.70;;;12.90;99.90;;;;;;5110963;28;20533;-67
2022/07/29 07:35:52;;;;;;;4.83;1.50;;;12.80;99.90;;;;;;5094059;28;20620;-68
2022/07/29 07:38:19;;;;;;;3.77;1.53;;;12.70;99.90;;;;;;5094247;28;20589;-68
2022/07/29 07:40:47;;;;;;;4.20;1.43;;;12.60;99.90;;;;;;5096551;28;20184;-69
2022/07/29 07:43:15;;;;;;;6.63;1.30;;;12.50;99.90;;;;;;5112027;28;20176;-68
2022/07/29 07:45:42;;;;;;;4.93;1.60;;;12.40;99.90;;;;;;5094245;28;20205;-68
2022/07/29 07:48:10;;;;;;;8.43;3.23;;;12.30;99.90;;;;;;5104923;28;20205;-69
2022/07/29 07:50:38;;;;;;;11.10;3.63;;;12.20;99.90;;;;;;5096410;28;20635;-69
2022/07/29 07:53:06;;;;;;;7.73;3.40;;;12.10;99.90;;;;;;5114611;28;20183;-68
2022/07/29 07:55:34;;;;;;;6.20;4.03;;;12.00;99.90;;;;;;5095869;28;20576;-68
2022/07/29 07:58:01;;;;;;;10.67;3.63;;;12.00;99.90;;;;;;5103888;28;20181;-69
2022/07/29 08:00:28;;;;;;;9.87;3.90;;;11.80;99.90;;;;;;5094006;28;20675;-68
2022/07/29 08:02:56;;;;;;;7.20;3.73;;;11.80;99.90;;;;;;5075679;28;20221;-68
2022/07/29 08:05:23;;;;;;;10.63;4.53;;;11.60;99.90;;;;;;5093760;28;20270;-67
2022/07/29 08:07:50;;;;;;;8.70;4.40;;;11.50;99.90;;;;;;5101900;28;20183;-68
2022/07/29 08:13:07;;;;;;;7.13;3.60;;;11.40;99.90;;;;;;5114240;28;20174;-67
2022/07/29 08:15:35;;;;;;;9.77;4.17;;;11.30;99.90;;;;;;5099976;28;20259;-68
2022/07/29 08:18:02;;;;;;;8.83;3.63;;;11.20;99.90;;;;;;5094499;28;20193;-67
2022/07/29 08:20:31;;;;;;;6.47;3.23;;;11.10;99.90;;;;;;5093888;28;20205;-68
2022/07/29 08:22:59;;;;;;;6.13;3.30;;;11.00;99.90;;;;;;5093555;28;20272;-68
2022/07/29 08:25:26;;;;;;;5.93;2.70;;;10.90;99.90;;;;;;5093371;28;20662;-68
2022/07/29 08:27:54;;;;;;;9.90;4.93;;;10.80;99.90;;;;;;5101653;28;20212;-67
2022/07/29 08:30:21;;;;;;;10.77;6.50;;;10.60;99.90;;;;;;5113531;28;20594;-67
2022/07/29 08:32:52;;;;;;;28.83;16.20;;;10.50;99.90;;;;;;5113816;28;20297;-68
2022/07/29 08:35:23;;;;;;;33.77;18.70;;;10.50;99.90;;;;;;5108433;28;20187;-68
2022/07/29 08:37:51;;;;;;;32.17;20.30;;;10.50;99.90;;;;;;5100947;28;20205;-68
2022/07/29 08:40:20;;;;;;;36.30;19.67;;;10.40;99.90;;;;;;5113533;28;20176;-68
2022/07/29 08:42:47;;;;;;;26.10;13.43;;;10.40;99.90;;;;;;5113680;28;20621;-69
2022/07/29 08:45:14;;;;;;;29.23;14.03;;;10.30;99.90;;;;;;5113419;28;20219;-69
2022/07/29 08:47:44;;;;;;;20.07;10.63;;;10.30;99.90;;;;;;5102704;28;20251;-69
2022/07/29 08:50:13;;;;;;;20.23;10.87;;;10.20;99.90;;;;;;5093026;28;20588;-69
2022/07/29 08:52:42;;;;;;;15.70;9.97;;;10.20;99.90;;;;;;5080485;28;20641;-67
2022/07/29 08:55:12;;;;;;;17.07;8.47;;;10.20;99.90;;;;;;5113230;28;20231;-67
2022/07/29 08:57:40;;;;;;;20.40;8.50;;;10.10;99.90;;;;;;5102921;28;20196;-67
2022/07/29 09:00:10;;;;;;;16.53;9.40;;;10.00;99.90;;;;;;5092627;28;20192;-68
2022/07/29 09:02:45;;;;;;;16.93;8.53;;;9.90;99.90;;;;;;5092831;28;20167;-67
2022/07/29 09:05:13;;;;;;;16.30;7.47;;;9.90;99.90;;;;;;5092641;28;20175;-68
2022/07/29 09:07:42;;;;;;;14.10;7.30;;;9.90;99.90;;;;;;5093572;28;20244;-68
2022/07/29 09:10:10;;;;;;;10.57;6.93;;;9.80;99.90;;;;;;5093704;28;20180;-69
2022/07/29 09:12:38;;;;;;;10.70;6.83;;;9.80;99.90;;;;;;5100714;28;20186;-69
2022/07/29 09:15:06;;;;;;;13.17;6.57;;;9.70;99.90;;;;;;5095607;28;20211;-69
2022/07/29 09:17:48;;;;;;;13.97;7.27;;;9.70;99.90;;;;;;5090925;28;20200;-67
2022/07/29 09:20:22;;;;;;;13.00;7.80;;;9.60;99.90;;;;;;5103138;28;20174;-66
2022/07/29 09:22:52;;;;;;;14.63;8.43;;;9.60;99.90;;;;;;5114333;28;20237;-68
2022/07/29 09:25:34;;;;;;;14.87;8.70;;;9.70;99.90;;;;;;5114254;28;20173;-67
2022/07/29 09:28:09;;;;;;;21.93;9.33;;;9.70;99.90;;;;;;5114152;28;20181;-66
2022/07/29 09:30:58;;;;;;;14.33;8.20;;;9.80;99.90;;;;;;5113915;28;20190;-67
2022/07/29 09:33:32;;;;;;;14.83;7.83;;;9.80;99.90;;;;;;5095780;28;20269;-68
2022/07/29 09:36:09;;;;;;;14.87;7.57;;;9.90;99.90;;;;;;5113848;28;20267;-66
2022/07/29 09:38:40;;;;;;;14.83;7.80;;;9.80;99.90;;;;;;5113969;28;20209;-67
2022/07/29 09:41:09;;;;;;;10.70;5.47;;;9.70;99.90;;;;;;5113678;28;20641;-65
2022/07/29 09:43:37;;;;;;;9.80;6.20;;;9.60;99.90;;;;;;5113771;28;20182;-66
2022/07/29 09:46:14;;;;;;;11.80;5.60;;;9.50;99.90;;;;;;5113701;28;20174;-66
2022/07/29 09:48:41;;;;;;;10.60;5.17;;;9.50;99.90;;;;;;5113752;28;20181;-66
2022/07/29 09:51:21;;;;;;;10.80;5.70;;;9.60;99.90;;;;;;5113960;28;20179;-66
2022/07/29 09:53:50;;;;;;;7.80;5.27;;;9.60;99.90;;;;;;5113783;28;20206;-67
2022/07/29 09:56:17;;;;;;;16.70;5.67;;;9.60;99.90;;;;;;5113675;28;20218;-67
2022/07/29 09:58:44;;;;;;;10.37;4.63;;;9.60;99.90;;;;;;5113678;28;20186;-67
2022/07/29 10:01:12;;;;;;;12.50;4.10;;;9.60;99.90;;;;;;5113730;28;20662;-66
2022/07/29 10:03:53;;;;;;;14.07;5.70;;;9.70;99.90;;;;;;5113575;28;20175;-68
2022/07/29 10:06:20;;;;;;;7.47;3.90;;;9.80;99.90;;;;;;5113695;28;20205;-67
2022/07/29 10:08:49;;;;;;;11.97;4.10;;;9.80;99.90;;;;;;5113920;28;20214;-66
2022/07/29 10:11:20;;;;;;;7.27;3.93;;;9.90;99.90;;;;;;5113665;28;20275;-66
2022/07/29 10:13:49;;;;;;;9.47;3.17;;;9.90;99.90;;;;;;5113555;28;20661;-67
2022/07/29 10:16:17;;;;;;;5.87;2.80;;;9.90;99.90;;;;;;5113546;28;20210;-67
2022/07/29 10:18:46;;;;;;;7.03;3.37;;;9.90;99.90;;;;;;5113582;28;20179;-66
2022/07/29 10:21:14;;;;;;;4.53;2.83;;;9.90;99.90;;;;;;5113509;28;20169;-66
2022/07/29 10:23:42;;;;;;;6.27;2.97;;;9.80;99.90;;;;;;5113399;28;20176;-67
2022/07/29 10:26:11;;;;;;;10.13;3.50;;;9.70;99.90;;;;;;5111018;28;20271;-71
2022/07/29 10:28:39;;;;;;;10.43;3.23;;;9.60;99.90;;;;;;5103265;28;20592;-73
2022/07/29 10:31:13;;;;;;;7.37;3.43;;;9.50;99.90;;;;;;5104571;28;20310;-73
2022/07/29 10:34:02;;;;;;;6.00;2.90;;;9.50;99.90;;;;;;5126072;27;20178;-73
2022/07/29 10:36:49;;;;;;;5.07;3.07;;;9.50;99.90;;;;;;5118158;27;20205;-74
2022/07/29 10:39:19;;;;;;;6.23;2.77;;;9.50;99.90;;;;;;5098248;28;20221;-73
2022/07/29 10:42:15;;;;;;;6.63;3.50;;;9.60;99.90;;;;;;5113442;28;20193;-73
2022/07/29 10:44:43;;;;;;;6.40;2.83;;;9.60;99.90;;;;;;5113223;28;20537;-73
2022/07/29 10:47:28;;;;;;;7.97;3.30;;;9.60;99.90;;;;;;5113369;28;20186;-73
2022/07/29 10:50:06;;;;;;;5.47;2.73;;;9.70;99.90;;;;;;5098004;28;20186;-73
2022/07/29 10:52:56;;;;;;;6.67;2.53;;;9.70;99.90;;;;;;5093173;28;20642;-73
2022/07/29 10:55:44;;;;;;;12.27;2.67;;;9.70;99.90;;;;;;5105015;28;20283;-73
2022/07/29 10:58:23;;;;;;;4.83;2.60;;;9.70;99.90;;;;;;5096597;28;20178;-73
2022/07/29 11:00:52;;;;;;;4.70;2.70;;;9.70;99.90;;;;;;5096686;28;20221;-73
2022/07/29 11:03:46;;;;;;;6.10;2.93;;;9.80;99.90;;;;;;5096869;28;20193;-74
2022/07/29 11:06:14;;;;;;;5.40;2.87;;;9.70;99.90;;;;;;5104593;28;20258;-73
2022/07/29 11:08:41;;;;;;;5.23;3.27;;;9.70;99.90;;;;;;5113960;28;20641;-72
2022/07/29 11:11:23;;;;;;;7.90;3.00;;;9.70;99.90;;;;;;5116900;28;20542;-74
2022/07/29 11:13:53;;;;;;;6.10;3.10;;;9.70;99.90;;;;;;5115633;28;20177;-73
2022/07/29 11:16:25;;;;;;;7.73;3.80;;;9.70;99.90;;;;;;5089185;28;20210;-74
2022/07/29 11:19:11;;;;;;;9.27;4.13;;;9.60;99.90;;;;;;5078253;28;20203;-74
2022/07/29 11:21:40;;;;;;;8.57;3.60;;;9.70;99.90;;;;;;5096299;28;20207;-73
2022/07/29 11:24:15;;;;;;;8.30;4.60;;;9.60;99.90;;;;;;5096458;28;20203;-73
2022/07/29 11:26:43;;;;;;;8.83;4.13;;;9.60;99.90;;;;;;5096579;28;20171;-73
2022/07/29 11:29:20;;;;;;;11.10;4.77;;;9.60;99.90;;;;;;5106012;28;20184;-73
2022/07/29 11:31:53;;;;;;;8.63;3.27;;;9.60;99.90;;;;;;5084222;28;20218;-74
2022/07/29 11:34:29;;;;;;;5.20;3.53;;;9.60;99.90;;;;;;5104767;28;20257;-73
2022/07/29 11:37:14;;;;;;;7.53;3.80;;;9.50;99.90;;;;;;5105639;28;20580;-74
2022/07/29 11:39:58;;;;;;;7.17;2.93;;;9.50;99.90;;;;;;5106267;28;20485;-75
2022/07/29 11:42:25;;;;;;;9.00;3.50;;;9.50;99.90;;;;;;5085410;28;20173;-74
2022/07/29 11:45:05;;;;;;;5.23;3.20;;;9.40;99.90;;;;;;5112168;28;20181;-73
2022/07/29 11:47:36;;;;;;;11.53;3.30;;;9.40;99.90;;;;;;5095887;28;20647;-73
2022/07/29 11:50:15;;;;;;;12.03;3.23;;;9.40;99.90;;;;;;5110232;28;20179;-73
2022/07/29 11:52:47;;;;;;;8.93;2.90;;;9.30;99.90;;;;;;5116024;28;20216;-74
2022/07/29 11:55:22;;;;;;;5.63;3.17;;;9.30;99.90;;;;;;5116156;28;20684;-74
2022/07/29 11:57:52;;;;;;;8.13;3.23;;;9.20;99.90;;;;;;5115267;28;20270;-73
2022/07/29 12:00:34;;;;;;;7.40;3.50;;;9.10;99.90;;;;;;5115411;28;20178;-74
2022/07/29 12:03:05;;;;;;;14.33;6.37;;;9.10;99.90;;;;;;5115807;28;20170;-73
2022/07/29 12:05:41;;;;;;;19.90;10.37;;;9.00;99.90;;;;;;5098260;28;20181;-73
2022/07/29 12:08:21;;;;;;;26.70;14.77;;;9.00;99.90;;;;;;5095666;28;20186;-73
2022/07/29 12:10:50;;;;;;;11.23;6.37;;;9.00;99.90;;;;;;5095507;28;20192;-73
2022/07/29 12:13:19;;;;;;;6.20;3.60;;;9.00;99.90;;;;;;5095303;28;20179;-73
2022/07/29 12:15:58;;;;;;;7.80;3.63;;;9.00;99.90;;;;;;5085629;28;20235;-74
2022/07/29 12:18:26;;;;;;;11.47;4.30;;;8.90;99.90;;;;;;5093071;28;20175;-73
2022/07/29 12:21:04;;;;;;;5.23;3.53;;;8.90;99.90;;;;;;5095201;28;20544;-73
2022/07/29 12:23:32;;;;;;;7.13;3.80;;;8.80;99.90;;;;;;5098827;28;20261;-73
2022/07/29 12:26:00;;;;;;;5.23;2.93;;;8.80;99.90;;;;;;5115010;28;20171;-72
2022/07/29 12:28:27;;;;;;;7.60;3.60;;;8.80;99.90;;;;;;5113435;28;20206;-72
2022/07/29 12:30:55;;;;;;;8.50;3.33;;;8.70;99.90;;;;;;5114981;28;20267;-73
2022/07/29 12:33:28;;;;;;;7.47;3.13;;;8.70;99.90;;;;;;5114903;28;20266;-72
2022/07/29 12:35:58;;;;;;;7.27;2.93;;;8.60;99.90;;;;;;5115314;28;20296;-72
2022/07/29 12:38:26;;;;;;;6.07;3.40;;;8.60;99.90;;;;;;5115557;28;20171;-73
2022/07/29 12:40:54;;;;;;;9.87;3.70;;;8.60;99.90;;;;;;5115422;28;20217;-73
2022/07/29 12:43:23;;;;;;;10.53;3.70;;;8.60;99.90;;;;;;5115207;28;20201;-73
2022/07/29 12:45:53;;;;;;;6.60;3.50;;;8.50;99.90;;;;;;5097593;28;20270;-73
2022/07/29 12:48:38;;;;;;;8.63;4.00;;;8.40;99.90;;;;;;5095274;28;20208;-73
2022/07/29 12:51:07;;;;;;;6.63;3.27;;;8.40;99.90;;;;;;5114981;28;20181;-73
2022/07/29 12:53:35;;;;;;;8.33;3.43;;;8.40;99.90;;;;;;5096640;28;20236;-74
2022/07/29 12:56:03;;;;;;;7.90;3.70;;;8.40;99.90;;;;;;5111791;28;20233;-73
2022/07/29 12:58:32;;;;;;;11.37;3.70;;;8.30;99.90;;;;;;5094679;28;20551;-74
2022/07/29 13:01:03;;;;;;;9.43;3.03;;;8.30;99.90;;;;;;5094431;28;20191;-72
2022/07/29 13:03:46;;;;;;;6.77;2.97;;;8.30;99.90;;;;;;5094297;28;20181;-73
2022/07/29 13:06:45;;;;;;;5.73;2.80;;;8.30;99.90;;;;;;5098383;28;20178;-73
2022/07/29 13:09:14;;;;;;;7.50;3.50;;;8.30;99.90;;;;;;5070408;28;20198;-73
2022/07/29 13:11:46;;;;;;;6.40;3.10;;;8.30;99.90;;;;;;5114217;28;20171;-71